Disclaimer

Please do not use the information listed here in-flight or in-navigation, as they are not provided to us by the airports but are provided by volunteers, so they might be outdated.

Search


Regions


Airport information page

Radio informations:
TWR/APP - 118.7 MHz

Airport informations:
Latitude: 24° 23' 34.00" S
Longitude: 065° 05' 52.00" W
Elevation: 3019 feet - 920 meters
Operating hours: Remarks
Operating agency: Civil government, landing fees and diplomatic clearance may be required
Timezone: UTC-3
Fuel: Jet A1+, Jet A1 with icing inhibitor.

100/130 MIL Spec, low lead, aviation gasoline (BLUE)

Runway information:
15/33 - 9698 x 131 feet< - >2956 x 40 meters

Recent METARs:
SASJ 210700Z 00000KT 9999 BKN100 19/17 Q1014
SASJ 210700Z 00000KT 9999 BKN100 19/17 Q1014
SASJ 210800Z 32003KT CAVOK 18/17 Q1014

Airport on the map: